Dimonios — 5BTW4 — position and weather

sailwx.info

Track history (hours):
 
Tides and Currents Weather Stations Pressure Air Temp Water Temp Dewpoint Dewpoint Depression Visibility Wind Speed Wind Dir Waves Ship Positions

Dimonios

Last reported at 2017-Nov-19 23:18 UTC. Time now 2017-Nov-21 04:46 UTC.
Position N 39°30' E 002°21'.

Length 188 m; draft 6.1 m.

Type: Passenger vessel. MMSI: 209042000.

Date/timePositionNaut miles runAvg speedWind from/ knotsBaromVisibWave heightAir tempDewpointWater temp
2017-Nov-19 23:18N 39°30' E 002°21'620.3
2017-Nov-19 23:00N 39°26' E 002°27'917.5
2017-Nov-19 22:30N 39°31' E 002°37'3 5.9
2017-Nov-19 22:00N 39°34' E 002°38'0 0.0
2017-Nov-19 21:30N 39°34' E 002°38'0 0.0
2017-Nov-19 20:58N 39°34' E 002°38'0 0.0
2017-Nov-19 20:28N 39°34' E 002°38'0 0.0
2017-Nov-19 19:58N 39°34' E 002°38'0 0.0
2017-Nov-19 19:28N 39°34' E 002°38'0 0.0
2017-Nov-19 18:58N 39°34' E 002°38'0 0.0
2017-Nov-19 18:28N 39°34' E 002°38'0 0.0
2017-Nov-19 17:58N 39°34' E 002°38'0 0.0
2017-Nov-19 17:28N 39°34' E 002°38'0 0.0
2017-Nov-19 16:58N 39°34' E 002°38'0 0.0
2017-Nov-19 16:28N 39°34' E 002°38'0 0.0
2017-Nov-19 15:58N 39°34' E 002°38'0 0.0
2017-Nov-19 15:28N 39°34' E 002°38'0 0.0
2017-Nov-19 14:58N 39°34' E 002°38'0 0.0
2017-Nov-19 14:28N 39°34' E 002°38'0 0.0
2017-Nov-19 13:58N 39°34' E 002°38'0 0.0
2017-Nov-19 13:28N 39°34' E 002°38'0 0.0
2017-Nov-19 12:58N 39°34' E 002°38'0 0.0
2017-Nov-19 12:28N 39°34' E 002°38'0 0.0
2017-Nov-19 11:58N 39°34' E 002°38'0 0.0
2017-Nov-19 11:28N 39°34' E 002°38'0 0.0
2017-Nov-19 10:58N 39°34' E 002°38'0 0.0
2017-Nov-19 10:28N 39°34' E 002°38'0 0.0
2017-Nov-19 09:58N 39°34' E 002°38'0 0.0
2017-Nov-19 09:28N 39°34' E 002°38'0 0.0
2017-Nov-19 08:58N 39°34' E 002°38'0 0.0
2017-Nov-19 08:28N 39°34' E 002°38'0 0.0
2017-Nov-19 07:58N 39°34' E 002°38'0 0.0
2017-Nov-19 07:28N 39°34' E 002°38'0 0.0
2017-Nov-19 06:58N 39°34' E 002°38'0 0.0
2017-Nov-19 06:28N 39°34' E 002°38'0 0.0
2017-Nov-19 06:01N 39°34' E 002°38'3 5.2
2017-Nov-19 05:30N 39°31' E 002°37'917.3
2017-Nov-19 05:00N 39°27' E 002°27'11217.5
2017-Nov-18 22:36N 41°18' E 002°14'109 4.8
2017-Nov-18 00:01N 39°30' E 002°21'018.9
2017-Nov-18 00:00N 39°29' E 002°22'917.9
2017-Nov-17 23:30N 39°26' E 002°32'917.9
2017-Nov-17 23:00N 39°33' E 002°39'1 1.1
2017-Nov-17 22:30N 39°34' E 002°38'0 0.0
2017-Nov-17 22:00N 39°34' E 002°38'0 0.0
2017-Nov-17 21:31N 39°34' E 002°38'0 0.0
2017-Nov-17 20:58N 39°34' E 002°38'0 0.0
2017-Nov-17 20:31N 39°34' E 002°38'0 0.0
2017-Nov-17 20:00N 39°34' E 002°38'0 0.0
2017-Nov-17 19:30N 39°34' E 002°38'5 9.9
2017-Nov-17 19:00N 39°29' E 002°36'11017.2
2017-Nov-17 12:35N 41°18' E 002°13'1 0.2
2017-Nov-17 05:58N 41°19' E 002°14'10918.5
2017-Nov-17 00:04N 39°30' E 002°22'119.5
2017-Nov-17 00:00N 39°29' E 002°23'917.2
2017-Nov-16 23:30N 39°27' E 002°33'815.5
2017-Nov-16 23:00N 39°33' E 002°38'0 0.4
2017-Nov-16 22:30N 39°34' E 002°38'0 0.0
2017-Nov-16 22:00N 39°34' E 002°38'0 0.0
2017-Nov-16 21:30N 39°34' E 002°38'0 0.0
2017-Nov-16 21:00N 39°34' E 002°38'0 0.0
2017-Nov-16 20:30N 39°34' E 002°38'0 0.0
2017-Nov-16 20:00N 39°34' E 002°38'0 0.0
2017-Nov-16 19:30N 39°34' E 002°38'3 6.7
2017-Nov-16 19:01N 39°30' E 002°37'918.1
2017-Nov-16 18:30N 39°26' E 002°27'10718.8
2017-Nov-16 12:47N 41°13' E 002°13'518.6
2017-Nov-16 12:30N 41°19' E 002°13'109 8.7
2017-Nov-16 00:04N 39°30' E 002°22'119.2
2017-Nov-15 23:59N 39°29' E 002°23'817.3
2017-Nov-15 23:30N 39°26' E 002°33'817.0
2017-Nov-15 23:00N 39°33' E 002°39'1 1.1
2017-Nov-15 22:30N 39°34' E 002°38'0 0.0
2017-Nov-15 22:00N 39°34' E 002°38'0 0.0
2017-Nov-15 21:28N 39°34' E 002°38'0 0.0
2017-Nov-15 20:58N 39°34' E 002°38'0 0.0
2017-Nov-15 20:28N 39°34' E 002°38'0 0.0
2017-Nov-15 19:58N 39°34' E 002°38'0 0.0
2017-Nov-15 19:30N 39°34' E 002°38'2 4.7
2017-Nov-15 19:00N 39°31' E 002°38'815.9
2017-Nov-15 18:30N 39°26' E 002°30'10718.6
2017-Nov-15 12:45N 41°12' E 002°12'620.0
2017-Nov-15 12:26N 41°18' E 002°13'108 8.8
2017-Nov-15 00:07N 39°30' E 002°21'321.0
2017-Nov-14 23:58N 39°28' E 002°24'816.3
2017-Nov-14 23:30N 39°28' E 002°34'613.0
2017-Nov-14 23:00N 39°34' E 002°38'0 0.0
2017-Nov-14 22:30N 39°34' E 002°38'0 0.0
2017-Nov-14 21:58N 39°34' E 002°38'0 0.0
2017-Nov-14 21:28N 39°34' E 002°38'0 0.0
2017-Nov-14 20:58N 39°34' E 002°38'0 0.0
2017-Nov-14 20:30N 39°34' E 002°38'0 0.0
2017-Nov-14 20:00N 39°34' E 002°38'714.1
2017-Nov-14 19:30N 39°27' E 002°34'11216.4
2017-Nov-14 12:41N 41°18' E 002°13'6 0.9
2017-Nov-14 06:18N 41°13' E 002°09'620.0
2017-Nov-14 06:00N 41°09' E 002°04'1019.6
2017-Nov-14 05:30N 41°01' E 001°56'9317.0
2017-Nov-14 00:04N 39°30' E 002°21'118.7
2017-Nov-14 00:00N 39°29' E 002°22'917.2
2017-Nov-13 23:30N 39°26' E 002°33'817.1
2017-Nov-13 23:00N 39°33' E 002°38'0 0.5
2017-Nov-13 22:30N 39°34' E 002°38'0 0.0
2017-Nov-13 22:00N 39°34' E 002°38'13 0.6
2017-Nov-12 23:14N 39°30' E 002°21'419.3
2017-Nov-12 23:01N 39°27' E 002°25'815.8
2017-Nov-12 22:30N 39°29' E 002°35'510.0
2017-Nov-12 22:01N 39°34' E 002°38'0 0.0
2017-Nov-12 21:30N 39°34' E 002°38'0 0.0
2017-Nov-12 21:00N 39°34' E 002°38'0 0.0
2017-Nov-12 20:29N 39°34' E 002°38'0 0.0
2017-Nov-12 19:59N 39°34' E 002°38'0 0.0
2017-Nov-12 19:29N 39°34' E 002°38'0 0.0
2017-Nov-12 18:59N 39°34' E 002°38'0 0.0
2017-Nov-12 18:29N 39°34' E 002°38'0 0.0
2017-Nov-12 17:59N 39°34' E 002°38'0 0.0
2017-Nov-12 17:29N 39°34' E 002°38'0 0.0
2017-Nov-12 16:59N 39°34' E 002°38'0 0.0
2017-Nov-12 16:29N 39°34' E 002°38'0 0.0
2017-Nov-12 15:59N 39°34' E 002°38'0 0.0
2017-Nov-12 15:29N 39°34' E 002°38'0 0.0
2017-Nov-12 14:59N 39°34' E 002°38'0 0.0
2017-Nov-12 14:29N 39°34' E 002°38'0 0.0
2017-Nov-12 13:59N 39°34' E 002°38'0 0.0
2017-Nov-12 13:29N 39°34' E 002°38'0 0.0
2017-Nov-12 12:59N 39°34' E 002°38'0 0.0
2017-Nov-12 12:29N 39°34' E 002°38'0 0.0
2017-Nov-12 11:59N 39°34' E 002°38'0 0.0
2017-Nov-12 11:29N 39°34' E 002°38'0 0.0
2017-Nov-12 10:59N 39°34' E 002°38'0 0.0
2017-Nov-12 10:29N 39°34' E 002°38'0 0.0
2017-Nov-12 09:59N 39°34' E 002°38'0 0.0
2017-Nov-12 09:29N 39°34' E 002°38'0 0.0
2017-Nov-12 08:59N 39°34' E 002°38'0 0.0
2017-Nov-12 08:29N 39°34' E 002°38'0 0.0
2017-Nov-12 07:59N 39°34' E 002°38'0 0.0
2017-Nov-12 07:29N 39°34' E 002°38'0 0.0
2017-Nov-12 07:00N 39°34' E 002°38'0 0.0
2017-Nov-12 06:30N 39°34' E 002°38'0 0.0
2017-Nov-12 06:00N 39°34' E 002°38'3 5.3
2017-Nov-12 05:30N 39°31' E 002°38'817.0
2017-Nov-12 05:00N 39°26' E 002°29'3116.7
2017-Nov-12 03:07N 39°56' E 002°14'6817.6
2017-Nov-11 23:15N 41°04' E 002°12'520.2
2017-Nov-11 23:00N 41°09' E 002°11'1020.7
2017-Nov-11 22:30N 41°19' E 002°13'109 4.8
2017-Nov-11 00:02N 39°30' E 002°21'118.9
2017-Nov-11 00:00N 39°30' E 002°22'918.3
2017-Nov-10 23:30N 39°26' E 002°33'816.9
2017-Nov-10 23:00N 39°33' E 002°38'0 0.7
2017-Nov-10 22:30N 39°34' E 002°38'0 0.0
2017-Nov-10 21:58N 39°34' E 002°38'0 0.0
2017-Nov-10 21:28N 39°34' E 002°38'0 0.0
2017-Nov-10 20:58N 39°34' E 002°38'0 0.0
2017-Nov-10 20:28N 39°34' E 002°38'0 0.0
2017-Nov-10 19:58N 39°34' E 002°38'0 0.0
2017-Nov-10 19:30N 39°34' E 002°38'2 3.3
2017-Nov-10 19:00N 39°32' E 002°39'918.8
2017-Nov-10 18:30N 39°26' E 002°29'7 0.4
2017-Nov-10 00:09N 39°30' E 002°21'320.7
2017-Nov-10 00:00N 39°28' E 002°24'817.0
2017-Nov-09 23:30N 39°28' E 002°35'  
Track history (hours):
 
Tides and Currents Weather Stations Pressure Air Temp Water Temp Dewpoint Dewpoint Depression Visibility Wind Speed Wind Dir Waves Ship Positions

Dimonios

Last reported at 2017-Nov-19 23:18 UTC. Time now 2017-Nov-21 04:46 UTC.
Position N 39°30' E 002°21'.

Length 188 m; draft 6.1 m.

Type: Passenger vessel. MMSI: 209042000.

Date/timePositionNaut miles runAvg speedWind from/ knotsBaromVisibWave heightAir tempDewpointWater temp
2017-Nov-19 23:18N 39°30' E 002°21'620.3
2017-Nov-19 23:00N 39°26' E 002°27'917.5
2017-Nov-19 22:30N 39°31' E 002°37'3 5.9
2017-Nov-19 22:00N 39°34' E 002°38'0 0.0
2017-Nov-19 21:30N 39°34' E 002°38'0 0.0
2017-Nov-19 20:58N 39°34' E 002°38'0 0.0
2017-Nov-19 20:28N 39°34' E 002°38'0 0.0
2017-Nov-19 19:58N 39°34' E 002°38'0 0.0
2017-Nov-19 19:28N 39°34' E 002°38'0 0.0
2017-Nov-19 18:58N 39°34' E 002°38'0 0.0
2017-Nov-19 18:28N 39°34' E 002°38'0 0.0
2017-Nov-19 17:58N 39°34' E 002°38'0 0.0
2017-Nov-19 17:28N 39°34' E 002°38'0 0.0
2017-Nov-19 16:58N 39°34' E 002°38'0 0.0
2017-Nov-19 16:28N 39°34' E 002°38'0 0.0
2017-Nov-19 15:58N 39°34' E 002°38'0 0.0
2017-Nov-19 15:28N 39°34' E 002°38'0 0.0
2017-Nov-19 14:58N 39°34' E 002°38'0 0.0
2017-Nov-19 14:28N 39°34' E 002°38'0 0.0
2017-Nov-19 13:58N 39°34' E 002°38'0 0.0
2017-Nov-19 13:28N 39°34' E 002°38'0 0.0
2017-Nov-19 12:58N 39°34' E 002°38'0 0.0
2017-Nov-19 12:28N 39°34' E 002°38'0 0.0
2017-Nov-19 11:58N 39°34' E 002°38'0 0.0
2017-Nov-19 11:28N 39°34' E 002°38'0 0.0
2017-Nov-19 10:58N 39°34' E 002°38'0 0.0
2017-Nov-19 10:28N 39°34' E 002°38'0 0.0
2017-Nov-19 09:58N 39°34' E 002°38'0 0.0
2017-Nov-19 09:28N 39°34' E 002°38'0 0.0
2017-Nov-19 08:58N 39°34' E 002°38'0 0.0
2017-Nov-19 08:28N 39°34' E 002°38'0 0.0
2017-Nov-19 07:58N 39°34' E 002°38'0 0.0
2017-Nov-19 07:28N 39°34' E 002°38'0 0.0
2017-Nov-19 06:58N 39°34' E 002°38'0 0.0
2017-Nov-19 06:28N 39°34' E 002°38'0 0.0
2017-Nov-19 06:01N 39°34' E 002°38'3 5.2
2017-Nov-19 05:30N 39°31' E 002°37'917.3
2017-Nov-19 05:00N 39°27' E 002°27'11217.5
2017-Nov-18 22:36N 41°18' E 002°14'109 4.8
2017-Nov-18 00:01N 39°30' E 002°21'018.9
2017-Nov-18 00:00N 39°29' E 002°22'917.9
2017-Nov-17 23:30N 39°26' E 002°32'917.9
2017-Nov-17 23:00N 39°33' E 002°39'1 1.1
2017-Nov-17 22:30N 39°34' E 002°38'0 0.0
2017-Nov-17 22:00N 39°34' E 002°38'0 0.0
2017-Nov-17 21:31N 39°34' E 002°38'0 0.0
2017-Nov-17 20:58N 39°34' E 002°38'0 0.0
2017-Nov-17 20:31N 39°34' E 002°38'0 0.0
2017-Nov-17 20:00N 39°34' E 002°38'0 0.0
2017-Nov-17 19:30N 39°34' E 002°38'5 9.9
2017-Nov-17 19:00N 39°29' E 002°36'11017.2
2017-Nov-17 12:35N 41°18' E 002°13'1 0.2
2017-Nov-17 05:58N 41°19' E 002°14'10918.5
2017-Nov-17 00:04N 39°30' E 002°22'119.5
2017-Nov-17 00:00N 39°29' E 002°23'917.2
2017-Nov-16 23:30N 39°27' E 002°33'815.5
2017-Nov-16 23:00N 39°33' E 002°38'0 0.4
2017-Nov-16 22:30N 39°34' E 002°38'0 0.0
2017-Nov-16 22:00N 39°34' E 002°38'0 0.0
2017-Nov-16 21:30N 39°34' E 002°38'0 0.0
2017-Nov-16 21:00N 39°34' E 002°38'0 0.0
2017-Nov-16 20:30N 39°34' E 002°38'0 0.0
2017-Nov-16 20:00N 39°34' E 002°38'0 0.0
2017-Nov-16 19:30N 39°34' E 002°38'3 6.7
2017-Nov-16 19:01N 39°30' E 002°37'918.1
2017-Nov-16 18:30N 39°26' E 002°27'10718.8
2017-Nov-16 12:47N 41°13' E 002°13'518.6
2017-Nov-16 12:30N 41°19' E 002°13'109 8.7
2017-Nov-16 00:04N 39°30' E 002°22'119.2
2017-Nov-15 23:59N 39°29' E 002°23'817.3
2017-Nov-15 23:30N 39°26' E 002°33'817.0
2017-Nov-15 23:00N 39°33' E 002°39'1 1.1
2017-Nov-15 22:30N 39°34' E 002°38'0 0.0
2017-Nov-15 22:00N 39°34' E 002°38'0 0.0
2017-Nov-15 21:28N 39°34' E 002°38'0 0.0
2017-Nov-15 20:58N 39°34' E 002°38'0 0.0
2017-Nov-15 20:28N 39°34' E 002°38'0 0.0
2017-Nov-15 19:58N 39°34' E 002°38'0 0.0
2017-Nov-15 19:30N 39°34' E 002°38'2 4.7
2017-Nov-15 19:00N 39°31' E 002°38'815.9
2017-Nov-15 18:30N 39°26' E 002°30'10718.6
2017-Nov-15 12:45N 41°12' E 002°12'620.0
2017-Nov-15 12:26N 41°18' E 002°13'108 8.8
2017-Nov-15 00:07N 39°30' E 002°21'321.0
2017-Nov-14 23:58N 39°28' E 002°24'816.3
2017-Nov-14 23:30N 39°28' E 002°34'613.0
2017-Nov-14 23:00N 39°34' E 002°38'0 0.0
2017-Nov-14 22:30N 39°34' E 002°38'0 0.0
2017-Nov-14 21:58N 39°34' E 002°38'0 0.0
2017-Nov-14 21:28N 39°34' E 002°38'0 0.0
2017-Nov-14 20:58N 39°34' E 002°38'0 0.0
2017-Nov-14 20:30N 39°34' E 002°38'0 0.0
2017-Nov-14 20:00N 39°34' E 002°38'714.1
2017-Nov-14 19:30N 39°27' E 002°34'11216.4
2017-Nov-14 12:41N 41°18' E 002°13'6 0.9
2017-Nov-14 06:18N 41°13' E 002°09'620.0
2017-Nov-14 06:00N 41°09' E 002°04'1019.6
2017-Nov-14 05:30N 41°01' E 001°56'9317.0
2017-Nov-14 00:04N 39°30' E 002°21'118.7
2017-Nov-14 00:00N 39°29' E 002°22'917.2
2017-Nov-13 23:30N 39°26' E 002°33'817.1
2017-Nov-13 23:00N 39°33' E 002°38'0 0.5
2017-Nov-13 22:30N 39°34' E 002°38'0 0.0
2017-Nov-13 22:00N 39°34' E 002°38'13 0.6
2017-Nov-12 23:14N 39°30' E 002°21'419.3
2017-Nov-12 23:01N 39°27' E 002°25'815.8
2017-Nov-12 22:30N 39°29' E 002°35'510.0
2017-Nov-12 22:01N 39°34' E 002°38'0 0.0
2017-Nov-12 21:30N 39°34' E 002°38'0 0.0
2017-Nov-12 21:00N 39°34' E 002°38'0 0.0
2017-Nov-12 20:29N 39°34' E 002°38'0 0.0
2017-Nov-12 19:59N 39°34' E 002°38'0 0.0
2017-Nov-12 19:29N 39°34' E 002°38'0 0.0
2017-Nov-12 18:59N 39°34' E 002°38'0 0.0
2017-Nov-12 18:29N 39°34' E 002°38'0 0.0
2017-Nov-12 17:59N 39°34' E 002°38'0 0.0
2017-Nov-12 17:29N 39°34' E 002°38'0 0.0
2017-Nov-12 16:59N 39°34' E 002°38'0 0.0
2017-Nov-12 16:29N 39°34' E 002°38'0 0.0
2017-Nov-12 15:59N 39°34' E 002°38'0 0.0
2017-Nov-12 15:29N 39°34' E 002°38'0 0.0
2017-Nov-12 14:59N 39°34' E 002°38'0 0.0
2017-Nov-12 14:29N 39°34' E 002°38'0 0.0
2017-Nov-12 13:59N 39°34' E 002°38'0 0.0
2017-Nov-12 13:29N 39°34' E 002°38'0 0.0
2017-Nov-12 12:59N 39°34' E 002°38'0 0.0
2017-Nov-12 12:29N 39°34' E 002°38'0 0.0
2017-Nov-12 11:59N 39°34' E 002°38'0 0.0
2017-Nov-12 11:29N 39°34' E 002°38'0 0.0
2017-Nov-12 10:59N 39°34' E 002°38'0 0.0
2017-Nov-12 10:29N 39°34' E 002°38'0 0.0
2017-Nov-12 09:59N 39°34' E 002°38'0 0.0
2017-Nov-12 09:29N 39°34' E 002°38'0 0.0
2017-Nov-12 08:59N 39°34' E 002°38'0 0.0
2017-Nov-12 08:29N 39°34' E 002°38'0 0.0
2017-Nov-12 07:59N 39°34' E 002°38'0 0.0
2017-Nov-12 07:29N 39°34' E 002°38'0 0.0
2017-Nov-12 07:00N 39°34' E 002°38'0 0.0
2017-Nov-12 06:30N 39°34' E 002°38'0 0.0
2017-Nov-12 06:00N 39°34' E 002°38'3 5.3
2017-Nov-12 05:30N 39°31' E 002°38'817.0
2017-Nov-12 05:00N 39°26' E 002°29'3116.7
2017-Nov-12 03:07N 39°56' E 002°14'6817.6
2017-Nov-11 23:15N 41°04' E 002°12'520.2
2017-Nov-11 23:00N 41°09' E 002°11'1020.7
2017-Nov-11 22:30N 41°19' E 002°13'109 4.8
2017-Nov-11 00:02N 39°30' E 002°21'118.9
2017-Nov-11 00:00N 39°30' E 002°22'918.3
2017-Nov-10 23:30N 39°26' E 002°33'816.9
2017-Nov-10 23:00N 39°33' E 002°38'0 0.7
2017-Nov-10 22:30N 39°34' E 002°38'0 0.0
2017-Nov-10 21:58N 39°34' E 002°38'0 0.0
2017-Nov-10 21:28N 39°34' E 002°38'0 0.0
2017-Nov-10 20:58N 39°34' E 002°38'0 0.0
2017-Nov-10 20:28N 39°34' E 002°38'0 0.0
2017-Nov-10 19:58N 39°34' E 002°38'0 0.0
2017-Nov-10 19:30N 39°34' E 002°38'2 3.3
2017-Nov-10 19:00N 39°32' E 002°39'918.8
2017-Nov-10 18:30N 39°26' E 002°29'7 0.4
2017-Nov-10 00:09N 39°30' E 002°21'320.7
2017-Nov-10 00:00N 39°28' E 002°24'817.0
2017-Nov-09 23:30N 39°28' E 002°35'  

Dump ship's entire track history